createdAt,value
2018-03-18T00:01:25.645Z,45.85
2018-03-18T00:03:59.312Z,41.50
2018-03-18T00:06:33.070Z,41.50
2018-03-18T00:09:07.433Z,39.78
2018-03-18T00:11:41.257Z,45.72
2018-03-18T00:14:15.036Z,43.30
2018-03-18T00:16:48.787Z,39.92
2018-03-18T00:19:22.530Z,41.37
2018-03-18T00:21:56.335Z,46.47
2018-03-18T00:24:30.057Z,43.53
2018-03-18T00:27:03.863Z,42.15
2018-03-18T00:29:38.350Z,42.42
2018-03-18T00:32:12.180Z,43.90
2018-03-18T00:34:46.029Z,51.92
2018-03-18T00:37:19.805Z,85.97
2018-03-18T00:39:53.513Z,69.18
2018-03-18T00:42:27.067Z,43.90
2018-03-18T00:45:00.752Z,56.83
2018-03-18T00:47:34.334Z,45.97
2018-03-18T00:50:07.934Z,46.72
2018-03-18T00:52:41.532Z,52.65
2018-03-18T00:55:15.255Z,49.72
2018-03-18T00:57:49.765Z,47.53
2018-03-18T01:00:23.349Z,47.03
2018-03-18T01:02:56.982Z,48.80
2018-03-18T01:05:30.554Z,43.22
2018-03-18T01:08:04.152Z,52.38
2018-03-18T01:10:37.649Z,40.20
2018-03-18T01:13:11.198Z,52.38
2018-03-18T01:15:44.744Z,45.95
2018-03-18T01:18:18.348Z,48.95
2018-03-18T01:20:51.873Z,48.13
2018-03-18T01:23:26.178Z,47.30
2018-03-18T01:25:59.942Z,47.30
2018-03-18T01:28:33.486Z,48.05
2018-03-18T01:31:07.076Z,49.35
2018-03-18T01:33:40.645Z,53.40
2018-03-18T01:36:15.011Z,51.13
2018-03-18T01:38:48.574Z,63.60
2018-03-18T01:41:22.193Z,57.03
2018-03-18T01:43:55.677Z,57.15
2018-03-18T01:46:29.201Z,56.17
2018-03-18T01:49:02.833Z,46.95
2018-03-18T01:51:36.390Z,52.05
2018-03-18T01:54:09.912Z,45.65
2018-03-18T01:56:43.480Z,50.45
2018-03-18T01:59:17.089Z,49.60
2018-03-18T02:01:50.597Z,46.30
2018-03-18T02:04:24.168Z,49.42
2018-03-18T02:06:57.781Z,54.13
2018-03-18T02:09:31.514Z,47.03
2018-03-18T02:12:05.098Z,50.78
2018-03-18T02:14:38.691Z,45.00
2018-03-18T02:17:12.402Z,45.12
2018-03-18T02:19:45.969Z,50.12
2018-03-18T02:22:19.505Z,51.55
2018-03-18T02:24:53.082Z,50.33
2018-03-18T02:27:26.628Z,59.53
2018-03-18T02:30:00.190Z,42.58
2018-03-18T02:32:34.521Z,49.58
2018-03-18T02:35:08.245Z,44.78
2018-03-18T02:37:41.805Z,42.67
2018-03-18T02:40:15.352Z,51.08
2018-03-18T02:42:48.917Z,62.88
2018-03-18T02:45:22.511Z,60.12
2018-03-18T02:47:56.114Z,61.42
2018-03-18T02:50:29.630Z,40.80
2018-03-18T02:53:04.098Z,46.53
2018-03-18T02:55:37.622Z,38.53
2018-03-18T02:58:11.277Z,42.50
2018-03-18T03:00:44.847Z,42.35
2018-03-18T03:03:18.407Z,39.85
2018-03-18T03:05:51.965Z,37.47
2018-03-18T03:08:25.638Z,42.22
2018-03-18T03:10:59.176Z,44.03
2018-03-18T03:13:33.498Z,48.63
2018-03-18T03:16:07.054Z,39.78
2018-03-18T03:18:40.582Z,41.47
2018-03-18T03:21:14.149Z,44.85
2018-03-18T03:23:47.694Z,47.60
2018-03-18T03:26:22.177Z,50.75
2018-03-18T03:28:55.813Z,41.40
2018-03-18T03:31:29.374Z,48.47
2018-03-18T03:34:02.966Z,40.97
2018-03-18T03:36:36.589Z,38.83
2018-03-18T03:39:10.161Z,42.75
2018-03-18T03:41:44.500Z,38.75
2018-03-18T03:44:18.064Z,48.50
2018-03-18T03:46:51.603Z,49.67
2018-03-18T03:49:25.172Z,60.40
2018-03-18T03:51:58.735Z,56.50
2018-03-18T03:54:32.356Z,44.03
2018-03-18T03:57:05.906Z,42.22
2018-03-18T03:59:40.225Z,44.80
2018-03-18T04:02:13.798Z,44.67
2018-03-18T04:04:47.308Z,43.67
2018-03-18T04:07:20.799Z,41.88
2018-03-18T04:09:54.326Z,44.10
2018-03-18T04:12:28.140Z,42.58
2018-03-18T04:15:01.713Z,41.35
2018-03-18T04:17:35.317Z,43.67
2018-03-18T04:20:08.863Z,46.47
2018-03-18T04:22:42.421Z,45.33
2018-03-18T04:25:16.050Z,46.95
2018-03-18T04:27:49.690Z,42.42
2018-03-18T04:30:23.422Z,45.70
2018-03-18T04:32:57.018Z,39.95
2018-03-18T04:35:30.558Z,44.35
2018-03-18T04:38:04.140Z,46.58
2018-03-18T04:40:37.697Z,36.67
2018-03-18T04:43:11.340Z,43.83
2018-03-18T04:45:48.309Z,57.78
2018-03-18T04:48:21.920Z,91.15
2018-03-18T04:50:55.433Z,58.03
2018-03-18T04:53:29.010Z,43.50
2018-03-18T04:56:02.602Z,46.97
2018-03-18T04:58:37.231Z,44.03
2018-03-18T05:01:11.541Z,39.53
2018-03-18T05:03:51.925Z,40.12
2018-03-18T05:06:25.537Z,41.65
2018-03-18T05:08:59.176Z,41.67
2018-03-18T05:11:32.752Z,42.95
2018-03-18T05:14:06.414Z,39.95
2018-03-18T05:16:39.967Z,39.15
2018-03-18T05:19:13.495Z,39.55
2018-03-18T05:21:47.942Z,39.78
2018-03-18T05:24:21.878Z,43.03
2018-03-18T05:26:56.163Z,37.95
2018-03-18T05:29:29.656Z,40.72
2018-03-18T05:32:03.271Z,49.67
2018-03-18T05:34:36.841Z,42.22
2018-03-18T05:37:10.616Z,41.15
2018-03-18T05:39:44.153Z,38.83
2018-03-18T05:42:17.757Z,40.58
2018-03-18T05:44:52.076Z,43.17
2018-03-18T05:47:25.919Z,48.30
2018-03-18T05:49:59.469Z,64.65
2018-03-18T05:52:32.964Z,47.08
2018-03-18T05:55:07.296Z,48.58
2018-03-18T05:57:40.817Z,46.58
2018-03-18T06:00:14.416Z,39.17
2018-03-18T06:02:47.974Z,44.33
2018-03-18T06:05:22.320Z,46.95
2018-03-18T06:07:56.726Z,37.80
2018-03-18T06:10:30.333Z,36.83
2018-03-18T06:13:03.925Z,37.47
2018-03-18T06:15:38.258Z,41.08
2018-03-18T06:18:12.772Z,39.67
2018-03-18T06:20:46.558Z,38.60
2018-03-18T06:23:20.184Z,44.50
2018-03-18T06:25:53.758Z,43.22
2018-03-18T06:28:27.715Z,41.55
2018-03-18T06:31:01.453Z,43.83
2018-03-18T06:33:34.998Z,36.70
2018-03-18T06:36:08.668Z,40.88
2018-03-18T06:38:42.242Z,35.55
2018-03-18T06:41:16.616Z,40.92
2018-03-18T06:43:50.200Z,50.30
2018-03-18T06:46:23.742Z,52.67
2018-03-18T06:48:57.313Z,64.53
2018-03-18T06:51:30.899Z,61.83
2018-03-18T06:54:05.241Z,52.65
2018-03-18T06:56:38.977Z,42.53
2018-03-18T06:59:13.258Z,39.30
2018-03-18T07:01:46.793Z,44.35
2018-03-18T07:04:20.362Z,40.03
2018-03-18T07:06:53.881Z,40.97
2018-03-18T07:09:27.366Z,52.85
2018-03-18T07:12:01.782Z,46.85
2018-03-18T07:14:35.379Z,49.80
2018-03-18T07:17:08.897Z,50.30
2018-03-18T07:19:45.458Z,49.30
2018-03-18T07:22:19.038Z,47.72
2018-03-18T07:24:53.470Z,52.40
2018-03-18T07:27:27.089Z,46.60
2018-03-18T07:30:00.577Z,47.90
2018-03-18T07:32:34.134Z,42.97
2018-03-18T07:35:09.596Z,44.83
2018-03-18T07:37:43.206Z,46.65
2018-03-18T07:40:16.718Z,44.83
2018-03-18T07:42:50.314Z,46.03
2018-03-18T07:45:23.926Z,52.72
2018-03-18T07:47:57.502Z,73.87
2018-03-18T07:50:32.574Z,99.13
2018-03-18T07:53:06.969Z,96.28
2018-03-18T07:55:41.401Z,90.55
2018-03-18T07:58:15.246Z,40.90
2018-03-18T08:00:52.220Z,47.50
2018-03-18T08:03:25.781Z,47.72
2018-03-18T08:05:59.442Z,42.10
2018-03-18T08:08:33.198Z,43.75
2018-03-18T08:11:06.824Z,46.08
2018-03-18T08:13:40.346Z,45.17
2018-03-18T08:16:14.013Z,47.70
2018-03-18T08:18:47.618Z,43.75
2018-03-18T08:21:21.172Z,45.67
2018-03-18T08:23:55.501Z,51.67
2018-03-18T08:26:29.288Z,49.50
2018-03-18T08:29:03.621Z,46.35
2018-03-18T08:31:37.334Z,44.85
2018-03-18T08:34:10.949Z,45.85
2018-03-18T08:36:44.517Z,43.63
2018-03-18T08:39:18.021Z,46.50
2018-03-18T08:41:52.538Z,42.38
2018-03-18T08:44:26.178Z,41.45
2018-03-18T08:46:59.749Z,39.85
2018-03-18T08:49:33.339Z,44.30
2018-03-18T08:52:07.702Z,70.50
2018-03-18T08:54:41.264Z,68.43
2018-03-18T08:57:15.683Z,57.55
2018-03-18T08:59:49.312Z,70.47
2018-03-18T09:02:22.910Z,43.47
2018-03-18T09:04:56.596Z,47.80
2018-03-18T09:07:30.088Z,42.35
2018-03-18T09:10:03.715Z,39.75
2018-03-18T09:12:37.295Z,40.38
2018-03-18T09:15:10.923Z,44.30
2018-03-18T09:17:44.468Z,40.50
2018-03-18T09:20:18.100Z,49.03
2018-03-18T09:22:52.450Z,47.10
2018-03-18T09:25:26.187Z,41.70
2018-03-18T09:27:59.809Z,49.85
2018-03-18T09:30:33.389Z,45.97
2018-03-18T09:33:06.910Z,45.47
2018-03-18T09:35:40.513Z,40.50
2018-03-18T09:38:14.040Z,40.47
2018-03-18T09:40:48.334Z,38.90
2018-03-18T09:43:21.951Z,42.15
2018-03-18T09:45:55.505Z,40.15
2018-03-18T09:48:29.194Z,45.70
2018-03-18T09:51:02.818Z,38.05
2018-03-18T09:53:36.476Z,43.30
2018-03-18T09:56:13.027Z,81.97
2018-03-18T09:58:46.593Z,53.30
2018-03-18T10:01:20.124Z,43.13
2018-03-18T10:03:54.549Z,35.88
2018-03-18T10:06:28.031Z,40.70
2018-03-18T10:09:01.612Z,40.50
2018-03-18T10:11:35.247Z,34.95
2018-03-18T10:14:09.021Z,34.67
2018-03-18T10:16:42.617Z,38.20
2018-03-18T10:19:16.160Z,46.13
2018-03-18T10:21:50.453Z,39.42
2018-03-18T10:24:23.972Z,42.17
2018-03-18T10:26:57.516Z,37.60
2018-03-18T10:29:31.188Z,39.35
2018-03-18T10:32:04.745Z,43.78
2018-03-18T10:34:38.246Z,40.60
2018-03-18T10:37:11.780Z,37.85
2018-03-18T10:39:45.354Z,38.25
2018-03-18T10:42:18.920Z,42.80
2018-03-18T10:44:52.474Z,39.05
2018-03-18T10:47:26.028Z,41.08
2018-03-18T10:50:00.365Z,38.58
2018-03-18T10:52:33.932Z,42.53
2018-03-18T10:55:07.616Z,71.72
2018-03-18T10:57:41.267Z,52.35
2018-03-18T11:00:20.727Z,47.47
2018-03-18T11:02:54.498Z,35.92
2018-03-18T11:05:28.125Z,37.70
2018-03-18T11:08:02.430Z,44.85
2018-03-18T11:10:36.193Z,33.55
2018-03-18T11:13:09.879Z,37.50
2018-03-18T11:15:50.318Z,36.58
2018-03-18T11:18:23.891Z,39.95
2018-03-18T11:20:58.295Z,40.90
2018-03-18T11:23:31.901Z,40.38
2018-03-18T11:26:05.442Z,42.22
2018-03-18T11:28:39.726Z,41.42
2018-03-18T11:31:13.330Z,43.00
2018-03-18T11:33:46.906Z,42.55
2018-03-18T11:36:20.457Z,41.88
2018-03-18T11:38:54.041Z,47.22
2018-03-18T11:41:27.628Z,39.38
2018-03-18T11:44:01.958Z,43.92
2018-03-18T11:46:35.677Z,36.60
2018-03-18T11:49:09.244Z,55.08
2018-03-18T11:51:42.871Z,77.82
2018-03-18T11:54:16.659Z,71.10
2018-03-18T11:56:50.222Z,75.65
2018-03-18T11:59:23.732Z,41.33
2018-03-18T12:01:57.352Z,37.40
2018-03-18T12:04:37.030Z,39.45
2018-03-18T12:07:11.433Z,41.37
2018-03-18T12:09:45.021Z,53.50
2018-03-18T12:12:20.903Z,50.22
2018-03-18T12:14:54.498Z,40.70
2018-03-18T12:17:28.004Z,40.88
2018-03-18T12:20:01.579Z,40.47
2018-03-18T12:22:36.075Z,37.70
2018-03-18T12:25:09.610Z,34.88
2018-03-18T12:27:43.138Z,40.45
2018-03-18T12:30:21.029Z,38.20
2018-03-18T12:32:54.545Z,40.00
2018-03-18T12:35:28.082Z,39.22
2018-03-18T12:38:02.521Z,38.75
2018-03-18T12:40:36.843Z,39.58
2018-03-18T12:43:22.137Z,37.78
2018-03-18T12:45:55.717Z,71.53
2018-03-18T12:48:29.322Z,50.33
2018-03-18T12:51:02.898Z,49.67
2018-03-18T12:53:36.434Z,35.58
2018-03-18T12:56:10.006Z,46.47
2018-03-18T12:58:43.577Z,35.63
2018-03-18T13:01:17.324Z,37.20
2018-03-18T13:03:51.085Z,36.80
2018-03-18T13:06:24.740Z,45.60
2018-03-18T13:08:59.032Z,35.63
2018-03-18T13:11:32.588Z,39.35
2018-03-18T13:14:06.170Z,33.60
2018-03-18T13:16:39.733Z,38.45
2018-03-18T13:19:13.313Z,27.98
2018-03-18T13:21:46.897Z,31.52
2018-03-18T13:24:20.542Z,35.30
2018-03-18T13:26:54.167Z,32.50
2018-03-18T13:29:27.851Z,24.87
2018-03-18T13:32:01.450Z,33.50
2018-03-18T13:34:35.034Z,35.75
2018-03-18T13:37:08.553Z,26.23
2018-03-18T13:39:42.071Z,29.67
2018-03-18T13:42:15.619Z,42.62
2018-03-18T13:44:49.194Z,34.17
2018-03-18T13:47:22.836Z,58.45
2018-03-18T13:49:56.437Z,69.32
2018-03-18T13:52:30.127Z,32.33
2018-03-18T13:55:03.745Z,27.52
2018-03-18T13:57:37.316Z,29.87
2018-03-18T14:00:10.892Z,31.60
2018-03-18T14:02:44.589Z,34.33
2018-03-18T14:05:18.283Z,33.40
2018-03-18T14:07:51.835Z,31.37
2018-03-18T14:10:25.378Z,34.38
2018-03-18T14:12:58.926Z,34.05
2018-03-18T14:15:32.476Z,31.83
2018-03-18T14:18:06.042Z,35.80
2018-03-18T14:20:39.590Z,36.63
2018-03-18T14:23:13.150Z,32.80
2018-03-18T14:25:46.735Z,29.33
2018-03-18T14:28:21.182Z,36.05
2018-03-18T14:30:54.800Z,32.38
2018-03-18T14:33:28.346Z,33.05
2018-03-18T14:36:01.878Z,32.50
2018-03-18T14:38:35.562Z,30.40
2018-03-18T14:41:09.899Z,36.15
2018-03-18T14:43:43.616Z,27.95
2018-03-18T14:46:17.206Z,53.33
2018-03-18T14:48:51.636Z,61.83
2018-03-18T14:51:25.308Z,48.95
2018-03-18T14:53:58.871Z,53.70
2018-03-18T14:56:32.462Z,32.20
2018-03-18T14:59:06.022Z,34.03
2018-03-18T15:01:39.585Z,28.48
2018-03-18T15:04:13.108Z,42.65
2018-03-18T15:06:47.474Z,31.12
2018-03-18T15:09:21.025Z,29.75
2018-03-18T15:11:54.802Z,29.75
2018-03-18T15:14:28.439Z,29.75
2018-03-18T15:17:02.041Z,30.42
2018-03-18T15:19:35.622Z,39.40
2018-03-18T15:22:09.185Z,31.33
2018-03-18T15:24:42.846Z,33.63
2018-03-18T15:27:19.464Z,31.67
2018-03-18T15:29:52.930Z,32.60
2018-03-18T15:32:26.659Z,36.67
2018-03-18T15:35:00.456Z,36.83
2018-03-18T15:37:34.188Z,39.85
2018-03-18T15:40:07.967Z,32.70
2018-03-18T15:42:41.539Z,33.28
2018-03-18T15:45:15.083Z,35.53
2018-03-18T15:47:48.708Z,65.32
2018-03-18T15:50:23.070Z,44.83
2018-03-18T15:52:56.764Z,44.90
2018-03-18T15:55:30.295Z,38.95
2018-03-18T15:58:03.846Z,27.67
2018-03-18T16:00:37.447Z,28.80
2018-03-18T16:03:11.253Z,31.23
2018-03-18T16:05:45.154Z,31.67
2018-03-18T16:08:18.914Z,31.95
2018-03-18T16:10:52.615Z,33.47
2018-03-18T16:13:26.183Z,40.45
2018-03-18T16:15:59.888Z,28.02
2018-03-18T16:18:33.474Z,31.33
2018-03-18T16:21:07.793Z,25.05
2018-03-18T16:23:41.494Z,31.23
2018-03-18T16:26:15.109Z,36.72
2018-03-18T16:28:48.615Z,28.42
2018-03-18T16:31:22.192Z,29.08
2018-03-18T16:33:56.700Z,28.38
2018-03-18T16:36:30.292Z,34.58
2018-03-18T16:39:03.852Z,30.00
2018-03-18T16:41:38.255Z,35.75
2018-03-18T16:44:11.761Z,33.65
2018-03-18T16:46:45.347Z,28.45
2018-03-18T16:49:18.967Z,28.20
2018-03-18T16:51:52.552Z,32.83
2018-03-18T16:54:26.187Z,28.00
2018-03-18T16:57:01.667Z,22.33
2018-03-18T16:59:35.276Z,41.83
2018-03-18T17:02:08.883Z,32.20
2018-03-18T17:04:43.226Z,40.38
2018-03-18T17:07:20.090Z,49.90
2018-03-18T17:09:53.684Z,39.97
2018-03-18T17:12:28.108Z,32.50
2018-03-18T17:15:01.807Z,28.27
2018-03-18T17:17:36.117Z,26.83
2018-03-18T17:20:09.692Z,32.38
2018-03-18T17:22:43.368Z,36.17
2018-03-18T17:25:17.012Z,29.05
2018-03-18T17:27:54.401Z,23.67
2018-03-18T17:30:28.094Z,31.55
2018-03-18T17:33:01.834Z,28.77
2018-03-18T17:35:36.242Z,34.72
2018-03-18T17:38:09.850Z,31.12
2018-03-18T17:40:43.374Z,36.28
2018-03-18T17:43:17.863Z,35.97
2018-03-18T17:46:04.026Z,34.85
2018-03-18T17:48:54.579Z,36.00
2018-03-18T17:51:40.156Z,30.35
2018-03-18T17:54:25.627Z,27.50
2018-03-18T17:56:59.338Z,29.58
2018-03-18T17:59:33.685Z,37.30
2018-03-18T18:02:07.258Z,29.05
2018-03-18T18:04:41.736Z,30.55
2018-03-18T18:07:15.266Z,30.52
2018-03-18T18:09:55.480Z,29.80
2018-03-18T18:12:29.840Z,28.67
2018-03-18T18:15:03.363Z,33.47
2018-03-18T18:17:37.845Z,24.87
2018-03-18T18:20:13.064Z,32.35
2018-03-18T18:22:46.745Z,30.05
2018-03-18T18:25:20.433Z,33.35
2018-03-18T18:27:59.436Z,35.25
2018-03-18T18:30:33.059Z,34.80
2018-03-18T18:33:06.966Z,31.50
2018-03-18T18:35:40.501Z,45.63
2018-03-18T18:38:14.238Z,33.42
2018-03-18T18:40:47.819Z,40.50
2018-03-18T18:43:21.453Z,41.10
2018-03-18T18:45:58.838Z,36.15
2018-03-18T18:48:32.414Z,38.00
2018-03-18T18:51:05.953Z,31.92
2018-03-18T18:53:39.646Z,32.95
2018-03-18T18:56:13.224Z,36.33
2018-03-18T18:58:46.834Z,36.78
2018-03-18T19:01:22.248Z,25.10
2018-03-18T19:03:55.750Z,36.22
2018-03-18T19:06:29.504Z,44.15
2018-03-18T19:09:03.974Z,31.27
2018-03-18T19:11:47.784Z,28.95
2018-03-18T19:14:21.405Z,31.58
2018-03-18T19:16:55.965Z,24.58
2018-03-18T19:19:29.654Z,28.77
2018-03-18T19:22:03.245Z,30.77
2018-03-18T19:24:36.816Z,30.02
2018-03-18T19:27:10.320Z,30.55
2018-03-18T19:29:43.852Z,28.50
2018-03-18T19:32:17.642Z,27.75
2018-03-18T19:34:51.227Z,21.62
2018-03-18T19:37:25.590Z,31.62
2018-03-18T19:39:59.320Z,30.70
2018-03-18T19:42:36.039Z,23.05
2018-03-18T19:45:10.349Z,25.15
2018-03-18T19:47:44.730Z,27.20
2018-03-18T19:50:19.210Z,34.45
2018-03-18T19:52:52.922Z,40.42
2018-03-18T19:55:26.449Z,43.05
2018-03-18T19:58:00.041Z,44.38
2018-03-18T20:00:33.714Z,44.40
2018-03-18T20:03:07.422Z,36.28
2018-03-18T20:05:41.020Z,29.12
2018-03-18T20:08:14.558Z,27.13
2018-03-18T20:10:48.099Z,28.23
2018-03-18T20:13:21.805Z,29.45
2018-03-18T20:15:55.348Z,34.63
2018-03-18T20:18:28.902Z,32.22
2018-03-18T20:21:02.612Z,31.42
2018-03-18T20:23:36.956Z,27.08
2018-03-18T20:26:11.282Z,31.65
2018-03-18T20:28:45.413Z,31.87
2018-03-18T20:31:19.132Z,28.00
2018-03-18T20:33:53.482Z,23.83
2018-03-18T20:36:26.933Z,31.25
2018-03-18T20:39:00.495Z,28.90
2018-03-18T20:41:34.222Z,31.00
2018-03-18T20:44:07.814Z,29.52
2018-03-18T20:46:42.330Z,26.10
2018-03-18T20:49:15.915Z,25.95
2018-03-18T20:51:50.261Z,31.40
2018-03-18T20:54:23.940Z,43.87
2018-03-18T20:56:58.397Z,43.70
2018-03-18T20:59:32.117Z,47.47
2018-03-18T21:02:06.395Z,29.77
2018-03-18T21:04:39.900Z,28.73
2018-03-18T21:07:13.505Z,28.17
2018-03-18T21:09:47.103Z,27.98
2018-03-18T21:12:20.686Z,30.60
2018-03-18T21:14:54.313Z,28.80
2018-03-18T21:17:27.852Z,28.10
2018-03-18T21:20:01.651Z,27.87
2018-03-18T21:22:35.245Z,26.50
2018-03-18T21:25:08.933Z,29.15
2018-03-18T21:27:42.638Z,31.08
2018-03-18T21:30:16.189Z,27.35
2018-03-18T21:32:49.847Z,27.23
2018-03-18T21:35:23.535Z,27.42
2018-03-18T21:37:57.846Z,24.73
2018-03-18T21:40:32.158Z,26.98
2018-03-18T21:43:06.675Z,26.87
2018-03-18T21:45:41.188Z,28.52
2018-03-18T21:48:14.771Z,28.40
2018-03-18T21:50:48.301Z,27.25
2018-03-18T21:53:21.821Z,39.00
2018-03-18T21:55:56.314Z,49.25
2018-03-18T21:58:29.853Z,86.65
2018-03-18T22:01:04.230Z,46.50
2018-03-18T22:03:37.910Z,37.42
2018-03-18T22:06:11.551Z,31.75
2018-03-18T22:08:45.121Z,26.50
2018-03-18T22:11:18.841Z,32.92
2018-03-18T22:13:52.424Z,22.42
2018-03-18T22:16:26.044Z,26.73
2018-03-18T22:18:59.666Z,31.75
2018-03-18T22:21:33.454Z,32.92
2018-03-18T22:24:07.059Z,26.83
2018-03-18T22:26:40.696Z,28.52
2018-03-18T22:29:14.251Z,35.65
2018-03-18T22:31:47.760Z,28.92
2018-03-18T22:34:21.318Z,27.55
2018-03-18T22:36:54.865Z,31.90
2018-03-18T22:39:28.409Z,39.83
2018-03-18T22:42:02.074Z,32.42
2018-03-18T22:44:36.376Z,27.17
2018-03-18T22:47:09.909Z,31.33
2018-03-18T22:49:43.455Z,29.33
2018-03-18T22:52:17.014Z,28.73
2018-03-18T22:54:50.657Z,29.08
2018-03-18T22:57:24.268Z,51.97
2018-03-18T22:59:57.871Z,78.60
2018-03-18T23:02:31.568Z,34.30
2018-03-18T23:05:05.890Z,39.83
2018-03-18T23:07:39.654Z,30.80
2018-03-18T23:10:14.139Z,26.42
2018-03-18T23:12:48.531Z,30.80
2018-03-18T23:15:22.212Z,28.87
2018-03-18T23:17:56.890Z,31.00
2018-03-18T23:20:30.466Z,34.50
2018-03-18T23:23:04.080Z,38.13
2018-03-18T23:25:37.797Z,32.58
2018-03-18T23:28:11.471Z,29.35
2018-03-18T23:30:45.055Z,33.30
2018-03-18T23:33:18.699Z,30.17
2018-03-18T23:35:52.417Z,41.50
2018-03-18T23:38:25.970Z,25.67
2018-03-18T23:40:59.501Z,31.90
2018-03-18T23:43:33.094Z,28.80
2018-03-18T23:46:06.667Z,31.23
2018-03-18T23:48:40.409Z,29.65
2018-03-18T23:51:14.190Z,23.58
2018-03-18T23:53:47.771Z,30.10
2018-03-18T23:56:21.510Z,37.25
2018-03-18T23:58:54.986Z,72.10
